createdAt,value
2017-12-12T00:01:17.208Z,6.20
2017-12-12T00:03:44.682Z,6.20
2017-12-12T00:06:12.889Z,6.20
2017-12-12T00:08:40.389Z,6.20
2017-12-12T00:11:07.837Z,6.10
2017-12-12T00:13:35.313Z,6.10
2017-12-12T00:16:02.892Z,6.00
2017-12-12T00:18:30.353Z,5.80
2017-12-12T00:20:57.825Z,5.70
2017-12-12T00:23:25.381Z,5.70
2017-12-12T00:25:52.789Z,5.50
2017-12-12T00:28:20.336Z,5.40
2017-12-12T00:30:48.563Z,5.40
2017-12-12T00:33:16.239Z,5.40
2017-12-12T00:35:44.440Z,5.10
2017-12-12T00:38:11.913Z,5.10
2017-12-12T00:40:39.378Z,5.20
2017-12-12T00:43:06.825Z,5.30
2017-12-12T00:45:34.337Z,5.00
2017-12-12T00:48:01.796Z,4.90
2017-12-12T00:50:29.321Z,4.80
2017-12-12T00:52:57.564Z,4.80
2017-12-12T00:55:25.072Z,4.70
2017-12-12T00:57:53.355Z,4.40
2017-12-12T01:00:21.633Z,4.00
2017-12-12T01:02:49.864Z,3.60
2017-12-12T01:05:17.344Z,3.60
2017-12-12T01:07:44.918Z,3.60
2017-12-12T01:10:12.354Z,3.60
2017-12-12T01:12:39.912Z,3.60
2017-12-12T01:15:07.382Z,3.50
2017-12-12T01:17:34.902Z,3.30
2017-12-12T01:20:03.190Z,2.90
2017-12-12T01:22:30.668Z,2.80
2017-12-12T01:24:58.332Z,3.00
2017-12-12T01:27:25.801Z,2.90
2017-12-12T01:29:53.332Z,2.80
2017-12-12T01:32:21.572Z,2.90
2017-12-12T01:34:49.088Z,2.80
2017-12-12T01:37:16.567Z,2.80
2017-12-12T01:39:44.039Z,3.00
2017-12-12T01:42:11.631Z,2.90
2017-12-12T01:44:39.180Z,3.00
2017-12-12T01:47:06.615Z,3.00
2017-12-12T01:49:34.237Z,3.10
2017-12-12T01:52:01.754Z,2.90
2017-12-12T01:54:29.240Z,2.90
2017-12-12T01:56:56.870Z,2.90
2017-12-12T01:59:24.278Z,3.10
2017-12-12T02:01:51.764Z,3.00
2017-12-12T02:04:20.061Z,3.00
2017-12-12T02:06:48.280Z,3.20
2017-12-12T02:09:15.823Z,3.20
2017-12-12T02:11:44.005Z,3.40
2017-12-12T02:14:12.214Z,3.30
2017-12-12T02:16:39.720Z,3.30
2017-12-12T02:19:07.199Z,3.00
2017-12-12T02:21:34.683Z,3.00
2017-12-12T02:24:02.222Z,3.10
2017-12-12T02:26:29.604Z,3.00
2017-12-12T02:28:57.072Z,2.90
2017-12-12T02:31:24.599Z,2.90
2017-12-12T02:33:52.081Z,2.90
2017-12-12T02:36:19.515Z,3.00
2017-12-12T02:38:47.751Z,2.70
2017-12-12T02:41:15.296Z,2.70
2017-12-12T02:43:42.834Z,2.50
2017-12-12T02:46:10.295Z,2.50
2017-12-12T02:48:37.973Z,2.40
2017-12-12T02:51:05.413Z,2.50
2017-12-12T02:53:33.708Z,2.60
2017-12-12T02:56:01.166Z,2.60
2017-12-12T02:58:29.388Z,2.60
2017-12-12T03:00:56.846Z,2.60
2017-12-12T03:03:24.371Z,2.60
2017-12-12T03:05:52.581Z,2.50
2017-12-12T03:08:20.830Z,2.60
2017-12-12T03:10:49.048Z,2.60
2017-12-12T03:13:16.592Z,2.60
2017-12-12T03:15:44.024Z,2.50
2017-12-12T03:18:12.254Z,2.50
2017-12-12T03:20:39.812Z,2.50
2017-12-12T03:23:07.291Z,2.50
2017-12-12T03:25:34.743Z,2.60
2017-12-12T03:28:02.229Z,2.50
2017-12-12T03:30:29.718Z,2.60
2017-12-12T03:32:57.973Z,2.40
2017-12-12T03:35:25.511Z,2.30
2017-12-12T03:37:52.956Z,2.30
2017-12-12T03:40:21.204Z,2.60
2017-12-12T03:42:49.433Z,2.50
2017-12-12T03:45:16.934Z,2.50
2017-12-12T03:47:44.386Z,2.40
2017-12-12T03:50:11.874Z,2.60
2017-12-12T03:52:40.119Z,2.70
2017-12-12T03:55:07.596Z,2.70
2017-12-12T03:57:35.093Z,2.70
2017-12-12T04:00:03.344Z,2.60
2017-12-12T04:02:30.852Z,2.60
2017-12-12T04:04:58.310Z,2.60
2017-12-12T04:07:25.832Z,2.50
2017-12-12T04:09:53.375Z,2.50
2017-12-12T04:12:20.903Z,2.50
2017-12-12T04:14:48.348Z,2.50
2017-12-12T04:17:15.917Z,2.50
2017-12-12T04:19:43.354Z,2.60
2017-12-12T04:22:10.867Z,2.70
2017-12-12T04:24:38.351Z,2.80
2017-12-12T04:27:05.832Z,2.80
2017-12-12T04:29:33.293Z,2.80
2017-12-12T04:32:00.873Z,2.70
2017-12-12T04:34:29.067Z,2.60
2017-12-12T04:36:56.535Z,2.60
2017-12-12T04:39:24.065Z,2.80
2017-12-12T04:41:51.498Z,2.70
2017-12-12T04:44:18.963Z,2.70
2017-12-12T04:46:46.514Z,2.60
2017-12-12T04:49:14.761Z,2.60
2017-12-12T04:51:42.986Z,2.60
2017-12-12T04:54:10.650Z,2.60
2017-12-12T04:56:38.126Z,2.70
2017-12-12T04:59:05.569Z,2.70
2017-12-12T05:01:33.069Z,2.70
2017-12-12T05:04:00.534Z,2.60
2017-12-12T05:06:28.016Z,2.70
2017-12-12T05:08:55.500Z,2.60
2017-12-12T05:11:22.996Z,2.60
2017-12-12T05:13:50.497Z,2.60
2017-12-12T05:16:18.755Z,2.70
2017-12-12T05:18:46.294Z,2.70
2017-12-12T05:21:13.765Z,2.60
2017-12-12T05:23:41.262Z,2.50
2017-12-12T05:26:09.534Z,2.80
2017-12-12T05:28:37.164Z,2.80
2017-12-12T05:31:04.713Z,2.80
2017-12-12T05:33:32.177Z,2.60
2017-12-12T05:35:59.683Z,2.60
2017-12-12T05:38:27.172Z,2.70
2017-12-12T05:40:55.994Z,2.70
2017-12-12T05:43:23.518Z,2.70
2017-12-12T05:45:50.991Z,2.70
2017-12-12T05:48:19.197Z,2.80
2017-12-12T05:50:46.707Z,2.80
2017-12-12T05:53:14.156Z,2.80
2017-12-12T05:55:41.638Z,2.70
2017-12-12T05:58:09.155Z,2.70
2017-12-12T06:00:36.611Z,2.60
2017-12-12T06:03:04.080Z,2.60
2017-12-12T06:05:31.622Z,2.70
2017-12-12T06:07:59.106Z,2.70
2017-12-12T06:10:26.625Z,2.80
2017-12-12T06:12:54.114Z,2.80
2017-12-12T06:15:21.631Z,2.70
2017-12-12T06:17:49.082Z,2.70
2017-12-12T06:20:16.548Z,2.90
2017-12-12T06:22:44.041Z,2.90
2017-12-12T06:25:11.483Z,2.80
2017-12-12T06:27:38.968Z,2.80
2017-12-12T06:30:06.522Z,2.80
2017-12-12T06:32:34.022Z,2.80
2017-12-12T06:35:01.509Z,2.80
2017-12-12T06:37:28.984Z,2.80
2017-12-12T06:39:56.480Z,2.90
2017-12-12T06:42:23.967Z,2.90
2017-12-12T06:44:51.532Z,2.80
2017-12-12T06:47:18.957Z,2.80
2017-12-12T06:49:46.481Z,2.80
2017-12-12T06:52:13.983Z,2.80
2017-12-12T06:54:41.490Z,2.80
2017-12-12T06:57:09.760Z,2.90
2017-12-12T06:59:37.278Z,2.80
2017-12-12T07:02:04.755Z,2.90
2017-12-12T07:04:32.285Z,2.90
2017-12-12T07:06:59.758Z,2.80
2017-12-12T07:09:27.212Z,2.70
2017-12-12T07:11:54.758Z,2.70
2017-12-12T07:14:22.256Z,2.80
2017-12-12T07:16:49.792Z,2.70
2017-12-12T07:19:17.240Z,2.70
2017-12-12T07:21:44.803Z,2.90
2017-12-12T07:24:12.201Z,2.80
2017-12-12T07:26:39.709Z,2.80
2017-12-12T07:29:08.012Z,2.80
2017-12-12T07:31:35.502Z,2.80
2017-12-12T07:34:02.959Z,2.80
2017-12-12T07:36:30.465Z,2.80
2017-12-12T07:38:57.936Z,2.80
2017-12-12T07:41:26.219Z,2.90
2017-12-12T07:43:54.489Z,2.90
2017-12-12T07:46:22.776Z,2.90
2017-12-12T07:48:51.048Z,3.00
2017-12-12T07:51:18.600Z,3.00
2017-12-12T07:53:46.037Z,2.90
2017-12-12T07:56:13.478Z,3.00
2017-12-12T07:58:40.964Z,2.90
2017-12-12T08:01:08.451Z,3.00
2017-12-12T08:03:35.938Z,3.00
2017-12-12T08:06:04.161Z,3.00
2017-12-12T08:08:32.415Z,3.00
2017-12-12T08:10:59.874Z,3.00
2017-12-12T08:13:28.142Z,3.00
2017-12-12T08:15:56.449Z,3.00
2017-12-12T08:18:23.942Z,3.00
2017-12-12T08:20:51.430Z,3.00
2017-12-12T08:23:18.908Z,3.00
2017-12-12T08:25:46.414Z,3.00
2017-12-12T08:28:13.874Z,3.00
2017-12-12T08:30:41.388Z,3.00
2017-12-12T08:33:08.838Z,3.00
2017-12-12T08:35:36.420Z,3.00
2017-12-12T08:38:04.687Z,3.10
2017-12-12T08:40:32.158Z,3.10
2017-12-12T08:42:59.651Z,3.10
2017-12-12T08:45:27.147Z,3.20
2017-12-12T08:47:54.676Z,3.10
2017-12-12T08:50:22.184Z,3.10
2017-12-12T08:52:49.628Z,3.20
2017-12-12T08:55:17.131Z,3.10
2017-12-12T08:57:44.634Z,3.10
2017-12-12T09:00:12.084Z,3.10
2017-12-12T09:02:39.704Z,3.20
2017-12-12T09:05:08.095Z,3.10
2017-12-12T09:07:35.741Z,3.10
2017-12-12T09:10:03.347Z,3.10
2017-12-12T09:12:35.112Z,3.10
2017-12-12T09:15:02.296Z,3.10
2017-12-12T09:17:29.775Z,3.20
2017-12-12T09:19:57.296Z,3.20
2017-12-12T09:22:24.849Z,3.20
2017-12-12T09:24:52.317Z,3.10
2017-12-12T09:27:20.681Z,3.30
2017-12-12T09:29:48.083Z,3.30
2017-12-12T09:32:15.543Z,3.40
2017-12-12T09:34:43.051Z,3.30
2017-12-12T09:37:10.578Z,3.30
2017-12-12T09:39:38.018Z,3.30
2017-12-12T09:42:06.241Z,3.30
2017-12-12T09:44:33.695Z,3.30
2017-12-12T09:47:01.299Z,3.40
2017-12-12T09:49:28.765Z,3.40
2017-12-12T09:51:56.284Z,3.40
2017-12-12T09:54:23.738Z,3.40
2017-12-12T09:56:51.256Z,3.30
2017-12-12T09:59:18.760Z,3.30
2017-12-12T10:01:46.253Z,3.30
2017-12-12T10:04:14.516Z,3.40
2017-12-12T10:06:41.964Z,3.40
2017-12-12T10:09:09.495Z,3.40
2017-12-12T10:11:37.528Z,3.30
2017-12-12T10:14:05.754Z,3.40
2017-12-12T10:16:34.066Z,3.50
2017-12-12T10:19:01.561Z,3.40
2017-12-12T10:21:29.133Z,3.50
2017-12-12T10:23:56.692Z,3.50
2017-12-12T10:26:24.194Z,3.50
2017-12-12T10:28:51.708Z,3.50
2017-12-12T10:31:19.174Z,3.40
2017-12-12T10:33:46.650Z,3.50
2017-12-12T10:36:14.185Z,3.40
2017-12-12T10:38:41.614Z,3.50
2017-12-12T10:41:09.852Z,3.50
2017-12-12T10:43:37.409Z,3.40
2017-12-12T10:46:04.867Z,3.40
2017-12-12T10:48:32.337Z,3.30
2017-12-12T10:50:59.858Z,3.30
2017-12-12T10:53:27.300Z,3.30
2017-12-12T10:55:54.790Z,3.20
2017-12-12T10:58:22.308Z,3.30
2017-12-12T11:00:49.782Z,3.20
2017-12-12T11:03:17.258Z,3.20
2017-12-12T11:05:44.769Z,3.30
2017-12-12T11:08:12.226Z,3.20
2017-12-12T11:10:39.754Z,3.30
2017-12-12T11:13:07.255Z,3.20
2017-12-12T11:15:34.797Z,3.30
2017-12-12T11:18:02.263Z,3.30
2017-12-12T11:20:29.736Z,3.30
2017-12-12T11:22:57.212Z,3.30
2017-12-12T11:25:24.791Z,3.30
2017-12-12T11:27:52.294Z,3.40
2017-12-12T11:30:19.725Z,3.30
2017-12-12T11:32:47.273Z,3.40
2017-12-12T11:35:14.791Z,3.40
2017-12-12T11:37:42.279Z,3.30
2017-12-12T11:40:09.976Z,3.30
2017-12-12T11:42:37.365Z,3.30
2017-12-12T11:45:05.029Z,3.30
2017-12-12T11:47:33.308Z,3.40
2017-12-12T11:50:00.763Z,3.40
2017-12-12T11:52:28.249Z,3.40
2017-12-12T11:54:55.893Z,3.50
2017-12-12T11:57:23.466Z,3.50
2017-12-12T11:59:51.266Z,3.50
2017-12-12T12:02:18.957Z,3.70
2017-12-12T12:04:46.429Z,3.80
2017-12-12T12:07:13.997Z,3.90
2017-12-12T12:09:41.497Z,4.00
2017-12-12T12:12:09.720Z,4.10
2017-12-12T12:14:37.229Z,4.10
2017-12-12T12:17:04.695Z,4.20
2017-12-12T12:19:32.164Z,4.30
2017-12-12T12:22:00.582Z,4.30
2017-12-12T12:24:27.972Z,4.30
2017-12-12T12:26:56.222Z,4.20
2017-12-12T12:29:24.502Z,4.10
2017-12-12T12:31:51.981Z,4.10
2017-12-12T12:34:19.447Z,4.20
2017-12-12T12:36:46.916Z,4.20
2017-12-12T12:39:14.415Z,4.30
2017-12-12T12:41:42.663Z,4.30
2017-12-12T12:44:10.213Z,4.20
2017-12-12T12:46:37.640Z,4.00
2017-12-12T12:49:05.239Z,4.00
2017-12-12T12:51:33.440Z,4.00
2017-12-12T12:54:00.954Z,4.00
2017-12-12T12:56:29.237Z,4.00
2017-12-12T12:58:56.675Z,3.90
2017-12-12T13:01:24.933Z,3.90
2017-12-12T13:03:52.425Z,3.90
2017-12-12T13:06:20.905Z,3.90
2017-12-12T13:08:49.180Z,3.90
2017-12-12T13:11:16.683Z,4.00
2017-12-12T13:13:44.221Z,3.80
2017-12-12T13:16:11.743Z,3.80
2017-12-12T13:18:39.202Z,3.80
2017-12-12T13:21:06.744Z,3.70
2017-12-12T13:23:34.211Z,3.70
2017-12-12T13:26:01.714Z,3.80
2017-12-12T13:28:30.024Z,3.80
2017-12-12T13:30:58.293Z,3.80
2017-12-12T13:33:25.805Z,3.80
2017-12-12T13:35:53.257Z,3.80
2017-12-12T13:38:20.772Z,3.80
2017-12-12T13:40:49.029Z,3.90
2017-12-12T13:43:16.542Z,3.80
2017-12-12T13:45:44.774Z,3.80
2017-12-12T13:48:12.238Z,3.80
2017-12-12T13:50:39.792Z,3.80
2017-12-12T13:53:07.345Z,3.90
2017-12-12T13:55:35.045Z,3.80
2017-12-12T13:58:02.585Z,3.90
2017-12-12T14:00:30.066Z,4.00
2017-12-12T14:02:57.585Z,3.90
2017-12-12T14:05:25.072Z,3.90
2017-12-12T14:07:52.616Z,3.80
2017-12-12T14:10:20.095Z,3.90
2017-12-12T14:12:47.655Z,4.00
2017-12-12T14:15:15.171Z,4.00
2017-12-12T14:17:42.707Z,4.10
2017-12-12T14:20:10.187Z,4.10
2017-12-12T14:22:38.493Z,4.10
2017-12-12T14:25:05.909Z,4.10
2017-12-12T14:27:33.447Z,4.10
2017-12-12T14:30:00.913Z,4.10
2017-12-12T14:32:28.451Z,4.20
2017-12-12T14:34:55.995Z,4.20
2017-12-12T14:37:23.433Z,4.10
2017-12-12T14:39:51.700Z,3.90
2017-12-12T14:42:19.196Z,3.90
2017-12-12T14:44:47.551Z,4.00
2017-12-12T14:47:15.057Z,3.90
2017-12-12T14:49:42.620Z,3.90
2017-12-12T14:52:10.083Z,3.90
2017-12-12T14:54:37.660Z,3.90
2017-12-12T14:57:05.227Z,3.90
2017-12-12T14:59:32.691Z,3.90
2017-12-12T15:02:00.191Z,4.00
2017-12-12T15:04:27.662Z,4.10
2017-12-12T15:06:55.206Z,4.10
2017-12-12T15:09:22.689Z,4.00
2017-12-12T15:11:50.286Z,3.90
2017-12-12T15:14:17.829Z,3.90
2017-12-12T15:16:45.361Z,3.90
2017-12-12T15:19:12.846Z,3.80
2017-12-12T15:21:40.252Z,3.90
2017-12-12T15:24:07.746Z,3.90
2017-12-12T15:26:35.310Z,3.90
2017-12-12T15:29:02.844Z,4.00
2017-12-12T15:31:30.267Z,4.00
2017-12-12T15:33:57.836Z,3.90
2017-12-12T15:36:25.279Z,3.90
2017-12-12T15:38:52.870Z,3.90
2017-12-12T15:41:21.187Z,4.00
2017-12-12T15:43:48.658Z,4.00
2017-12-12T15:46:16.263Z,4.00
2017-12-12T15:48:43.691Z,4.00
2017-12-12T15:51:11.227Z,4.00
2017-12-12T15:53:39.479Z,4.20
2017-12-12T15:56:06.961Z,4.20
2017-12-12T15:58:35.219Z,4.10
2017-12-12T16:01:02.729Z,4.10
2017-12-12T16:03:30.209Z,4.10
2017-12-12T16:05:57.676Z,4.00
2017-12-12T16:08:25.160Z,4.00
2017-12-12T16:10:52.718Z,4.00
2017-12-12T16:13:20.120Z,3.90
2017-12-12T16:15:47.615Z,3.80
2017-12-12T16:18:15.123Z,3.70
2017-12-12T16:20:42.598Z,3.70
2017-12-12T16:23:10.849Z,3.70
2017-12-12T16:25:38.391Z,3.60
2017-12-12T16:28:05.865Z,3.70
2017-12-12T16:30:33.351Z,3.70
2017-12-12T16:33:00.855Z,3.60
2017-12-12T16:35:28.357Z,4.00
2017-12-12T16:38:05.745Z,4.20
2017-12-12T16:40:33.346Z,4.40
2017-12-12T16:43:00.817Z,4.50
2017-12-12T16:45:29.081Z,4.80
2017-12-12T16:47:56.585Z,4.70
2017-12-12T16:50:24.061Z,4.80
2017-12-12T16:52:51.613Z,4.80
2017-12-12T16:55:19.046Z,5.00
2017-12-12T16:57:47.364Z,4.30
2017-12-12T17:00:15.555Z,3.90
2017-12-12T17:02:43.017Z,3.90
2017-12-12T17:05:10.525Z,3.80
2017-12-12T17:07:38.786Z,3.60
2017-12-12T17:10:06.231Z,3.60
2017-12-12T17:12:33.764Z,3.60
2017-12-12T17:15:01.344Z,3.60
2017-12-12T17:17:28.814Z,3.60
2017-12-12T17:19:56.288Z,3.50
2017-12-12T17:22:23.804Z,3.50
2017-12-12T17:24:51.292Z,3.50
2017-12-12T17:27:18.882Z,3.60
2017-12-12T17:29:46.412Z,3.70
2017-12-12T17:32:13.862Z,3.60
2017-12-12T17:34:41.297Z,3.60
2017-12-12T17:37:09.575Z,3.60
2017-12-12T17:39:37.847Z,3.70
2017-12-12T17:42:05.335Z,3.70
2017-12-12T17:44:32.896Z,3.80
2017-12-12T17:47:01.210Z,3.70
2017-12-12T17:49:28.683Z,3.70
2017-12-12T17:51:56.224Z,3.70
2017-12-12T17:54:23.720Z,3.70
2017-12-12T17:56:51.338Z,3.80
2017-12-12T17:59:19.125Z,3.80
2017-12-12T18:01:46.576Z,3.80
2017-12-12T18:04:14.044Z,3.70
2017-12-12T18:06:41.562Z,3.80
2017-12-12T18:09:09.044Z,3.90
2017-12-12T18:11:36.499Z,4.00
2017-12-12T18:14:03.996Z,4.10
2017-12-12T18:16:31.464Z,4.20
2017-12-12T18:18:58.948Z,4.30
2017-12-12T18:21:26.434Z,4.20
2017-12-12T18:23:53.974Z,4.30
2017-12-12T18:26:21.453Z,4.30
2017-12-12T18:28:48.896Z,4.30
2017-12-12T18:31:16.393Z,4.30
2017-12-12T18:33:43.883Z,4.20
2017-12-12T18:36:11.338Z,4.20
2017-12-12T18:38:39.608Z,4.00
2017-12-12T18:41:07.913Z,4.00
2017-12-12T18:43:36.169Z,3.90
2017-12-12T18:46:04.436Z,4.00
2017-12-12T18:48:31.961Z,4.00
2017-12-12T18:50:59.460Z,4.00
2017-12-12T18:53:26.930Z,3.90
2017-12-12T18:55:54.525Z,3.90
2017-12-12T18:58:22.040Z,4.00
2017-12-12T19:00:49.561Z,4.10
2017-12-12T19:03:17.061Z,4.10
2017-12-12T19:05:44.561Z,4.00
2017-12-12T19:08:12.060Z,4.00
2017-12-12T19:10:39.538Z,4.00
2017-12-12T19:13:07.088Z,3.90
2017-12-12T19:15:34.620Z,3.80
2017-12-12T19:18:02.074Z,3.80
2017-12-12T19:20:30.351Z,3.90
2017-12-12T19:22:57.881Z,3.90
2017-12-12T19:25:25.499Z,3.90
2017-12-12T19:27:53.747Z,4.10
2017-12-12T19:30:21.250Z,4.10
2017-12-12T19:32:49.475Z,4.00
2017-12-12T19:35:16.976Z,4.00
2017-12-12T19:37:44.415Z,4.10
2017-12-12T19:40:11.929Z,4.10
2017-12-12T19:42:39.449Z,4.10
2017-12-12T19:45:06.962Z,4.20
2017-12-12T19:47:34.432Z,4.20
2017-12-12T19:50:01.994Z,4.20
2017-12-12T19:52:29.472Z,4.20
2017-12-12T19:54:56.982Z,4.00
2017-12-12T19:57:25.252Z,4.00
2017-12-12T19:59:52.676Z,4.10
2017-12-12T20:02:20.194Z,4.10
2017-12-12T20:04:48.539Z,4.10
2017-12-12T20:07:16.760Z,4.10
2017-12-12T20:09:44.993Z,4.10
2017-12-12T20:12:12.517Z,4.10
2017-12-12T20:14:40.056Z,4.10
2017-12-12T20:17:08.334Z,4.00
2017-12-12T20:19:35.855Z,4.00
2017-12-12T20:22:03.319Z,3.90
2017-12-12T20:24:30.963Z,3.80
2017-12-12T20:26:58.478Z,3.90
2017-12-12T20:29:25.936Z,3.90
2017-12-12T20:31:53.454Z,3.90
2017-12-12T20:34:21.025Z,3.90
2017-12-12T20:36:48.574Z,3.90
2017-12-12T20:39:16.044Z,3.90
2017-12-12T20:41:43.555Z,3.90
2017-12-12T20:44:11.060Z,4.10
2017-12-12T20:46:38.660Z,4.10
2017-12-12T20:49:06.094Z,4.10
2017-12-12T20:51:33.627Z,4.20
2017-12-12T20:54:01.215Z,4.00
2017-12-12T20:56:28.659Z,4.00
2017-12-12T20:58:56.143Z,4.00
2017-12-12T21:01:24.368Z,4.20
2017-12-12T21:03:51.841Z,4.20
2017-12-12T21:06:19.571Z,4.20
2017-12-12T21:08:48.422Z,4.20
2017-12-12T21:11:15.912Z,4.20
2017-12-12T21:13:43.386Z,4.20
2017-12-12T21:16:10.838Z,4.00
2017-12-12T21:18:38.286Z,4.00
2017-12-12T21:21:05.810Z,4.00
2017-12-12T21:23:33.366Z,4.10
2017-12-12T21:26:00.830Z,4.00
2017-12-12T21:28:28.463Z,3.90
2017-12-12T21:30:56.232Z,3.90
2017-12-12T21:33:23.743Z,3.90
2017-12-12T21:35:52.052Z,4.10
2017-12-12T21:38:22.418Z,4.00
2017-12-12T21:40:49.964Z,4.10
2017-12-12T21:43:17.413Z,4.00
2017-12-12T21:45:44.905Z,4.00
2017-12-12T21:48:12.419Z,4.00
2017-12-12T21:50:40.726Z,3.80
2017-12-12T21:53:08.249Z,3.80
2017-12-12T21:55:35.768Z,3.70
2017-12-12T21:58:03.252Z,3.60
2017-12-12T22:00:30.729Z,3.60
2017-12-12T22:02:58.241Z,3.60
2017-12-12T22:05:25.733Z,3.60
2017-12-12T22:07:53.233Z,3.70
2017-12-12T22:10:20.754Z,3.70
2017-12-12T22:12:48.253Z,3.80
2017-12-12T22:15:15.733Z,3.80
2017-12-12T22:17:44.030Z,3.70
2017-12-12T22:20:11.527Z,3.70
2017-12-12T22:22:39.013Z,3.70
2017-12-12T22:25:06.554Z,3.70
2017-12-12T22:27:34.774Z,3.70
2017-12-12T22:30:02.273Z,3.70
2017-12-12T22:32:29.731Z,3.70
2017-12-12T22:34:57.190Z,3.60
2017-12-12T22:37:25.425Z,3.80
2017-12-12T22:39:52.925Z,3.80
2017-12-12T22:42:21.178Z,3.80
2017-12-12T22:44:49.051Z,3.80
2017-12-12T22:47:16.596Z,3.80
2017-12-12T22:49:44.049Z,3.70
2017-12-12T22:52:11.514Z,3.60
2017-12-12T22:54:38.988Z,3.70
2017-12-12T22:57:07.255Z,3.60
2017-12-12T22:59:34.746Z,3.60
2017-12-12T23:02:02.611Z,3.50
2017-12-12T23:04:30.071Z,3.60
2017-12-12T23:06:57.569Z,3.40
2017-12-12T23:09:25.095Z,3.40
2017-12-12T23:11:52.725Z,3.40
2017-12-12T23:14:20.241Z,3.40
2017-12-12T23:16:47.696Z,3.40
2017-12-12T23:19:15.205Z,3.40
2017-12-12T23:21:43.046Z,3.40
2017-12-12T23:24:10.463Z,3.40
2017-12-12T23:26:38.661Z,3.50
2017-12-12T23:29:06.148Z,3.50
2017-12-12T23:31:34.420Z,3.60
2017-12-12T23:34:01.928Z,3.60
2017-12-12T23:36:29.480Z,3.60
2017-12-12T23:38:56.941Z,3.50
2017-12-12T23:41:24.502Z,3.60
2017-12-12T23:43:52.714Z,3.60
2017-12-12T23:46:20.403Z,3.60
2017-12-12T23:48:47.888Z,3.50
2017-12-12T23:51:15.408Z,3.50
2017-12-12T23:53:42.873Z,3.50
2017-12-12T23:56:10.339Z,3.50
2017-12-12T23:58:37.827Z,3.50
